Time;durP1;ratioP1;P1;durP2;ratioP2;P2;SDS_P1;SDS_P2;PMS_P1;PMS_P2;Temp;Humidity;BMP_temperature;BMP_pressure;BME280_temperature;BME280_humidity;BME280_pressure;Samples;Min_cycle;Max_cycle;Signal;HPM_P1;HPM_P2
2023/01/06 00:02:05;;;;;;;13.77;4.43;;;11.60;99.90;;;;;;5026041;28;20244;-85
2023/01/06 00:04:34;;;;;;;16.03;4.43;;;11.60;99.90;;;;;;5045476;28;20281;-85
2023/01/06 00:07:01;;;;;;;13.53;3.77;;;11.60;99.90;;;;;;5024685;28;20220;-85
2023/01/06 00:09:28;;;;;;;16.03;4.47;;;11.50;99.90;;;;;;5042627;28;20212;-85
2023/01/06 00:11:55;;;;;;;12.83;3.83;;;11.60;99.90;;;;;;5039278;28;20229;-85
2023/01/06 00:14:22;;;;;;;17.00;4.83;;;11.60;99.90;;;;;;5041116;28;20212;-85
2023/01/06 00:16:49;;;;;;;15.57;4.40;;;11.50;99.90;;;;;;5023606;28;20209;-85
2023/01/06 00:19:16;;;;;;;15.43;4.70;;;11.50;99.90;;;;;;5018969;28;20617;-85
2023/01/06 00:21:44;;;;;;;16.27;4.60;;;11.60;99.90;;;;;;5018045;28;20224;-85
2023/01/06 00:24:11;;;;;;;20.00;5.90;;;11.60;99.90;;;;;;5036721;28;20233;-85
2023/01/06 00:26:39;;;;;;;11.47;3.87;;;11.60;99.90;;;;;;5041359;28;20632;-85
2023/01/06 00:29:06;;;;;;;10.63;2.90;;;11.60;99.90;;;;;;5040306;28;20292;-86
2023/01/06 00:31:33;;;;;;;12.23;3.97;;;11.60;99.90;;;;;;5042195;28;20312;-85
2023/01/06 00:34:01;;;;;;;14.07;4.80;;;11.60;99.90;;;;;;5025266;28;20212;-86
2023/01/06 00:36:28;;;;;;;14.30;4.47;;;11.50;99.90;;;;;;5029522;28;20216;-86
2023/01/06 00:38:56;;;;;;;14.57;4.20;;;11.00;99.90;;;;;;5024109;28;20201;-86
2023/01/06 00:44:08;;;;;;;11.80;3.70;;;11.50;99.90;;;;;;5055455;28;20267;-86
2023/01/06 00:46:36;;;;;;;15.23;4.37;;;11.50;99.90;;;;;;5045218;28;20221;-86
2023/01/06 00:49:03;;;;;;;20.10;4.33;;;;;;;;;;5045742;28;20220;-84
2023/01/06 00:51:31;;;;;;;13.63;4.20;;;11.50;99.90;;;;;;5031962;28;20237;-85
2023/01/06 00:54:00;;;;;;;20.47;6.10;;;11.50;99.90;;;;;;5044012;28;20333;-86
2023/01/06 00:56:28;;;;;;;16.60;4.57;;;11.30;99.90;;;;;;5021917;28;20205;-83
2023/01/06 00:58:55;;;;;;;12.73;4.37;;;11.40;99.90;;;;;;5020743;28;20301;-86
2023/01/06 01:01:22;;;;;;;15.00;4.43;;;11.40;99.90;;;;;;5023362;28;20221;-84
2023/01/06 01:03:49;;;;;;;13.20;3.90;;;11.40;99.90;;;;;;5024140;28;20702;-86
2023/01/06 01:06:16;;;;;;;14.60;4.33;;;11.40;99.90;;;;;;5025929;28;20823;-86
2023/01/06 01:08:43;;;;;;;15.00;4.37;;;11.40;99.90;;;;;;5025052;28;20296;-84
2023/01/06 01:12:08;;;;;;;15.73;4.37;;;11.40;99.90;;;;;;5031951;28;20221;-85
2023/01/06 01:14:00;;;;;;;13.77;3.80;;;11.40;99.90;;;;;;5019706;28;20217;-85
2023/01/06 01:16:27;;;;;;;15.10;3.80;;;11.40;99.90;;;;;;5055425;28;20227;-86
2023/01/06 01:18:54;;;;;;;13.77;4.27;;;11.40;99.90;;;;;;5062190;28;20300;-86
2023/01/06 01:21:21;;;;;;;12.30;3.80;;;11.40;99.90;;;;;;5051578;28;20244;-86
2023/01/06 01:23:48;;;;;;;13.60;3.90;;;11.40;99.90;;;;;;5047979;28;20283;-85
2023/01/06 01:26:17;;;;;;;11.33;3.43;;;11.40;99.90;;;;;;5057017;28;20205;-85
2023/01/06 01:28:44;;;;;;;21.90;4.50;;;11.40;99.90;;;;;;5049646;28;20221;-85
2023/01/06 01:31:12;;;;;;;12.20;3.30;;;11.20;99.90;;;;;;5027500;28;20236;-85
2023/01/06 01:33:39;;;;;;;11.87;3.40;;;11.40;99.90;;;;;;5028161;28;20209;-85
2023/01/06 01:36:07;;;;;;;13.37;3.70;;;11.40;99.90;;;;;;5021305;28;20225;-86
2023/01/06 01:38:34;;;;;;;13.60;3.93;;;;;;;;;;5023176;28;20216;-84
2023/01/06 01:41:02;;;;;;;20.00;4.70;;;11.40;99.90;;;;;;5021365;28;20210;-85
2023/01/06 01:43:45;;;;;;;14.47;3.80;;;11.40;99.90;;;;;;5024664;28;20217;-85
2023/01/06 01:46:14;;;;;;;14.23;3.70;;;11.40;99.90;;;;;;5013296;28;20206;-85
2023/01/06 01:48:41;;;;;;;12.60;3.60;;;10.70;99.90;;;;;;5039535;28;20206;-85
2023/01/06 01:51:13;;;;;;;12.80;3.77;;;11.30;99.90;;;;;;5016180;28;20205;-85
2023/01/06 01:53:45;;;;;;;13.57;3.60;;;11.40;99.90;;;;;;5038173;28;20190;-86
2023/01/06 01:56:15;;;;;;;12.73;3.57;;;11.50;99.90;;;;;;5042036;28;20216;-85
2023/01/06 01:58:45;;;;;;;14.07;4.03;;;11.40;99.90;;;;;;5026325;28;20292;-85
2023/01/06 02:01:13;;;;;;;16.20;4.23;;;11.40;99.90;;;;;;5017154;28;20214;-85
2023/01/06 02:03:42;;;;;;;11.47;3.37;;;11.40;99.90;;;;;;5028466;28;20225;-85
2023/01/06 02:06:13;;;;;;;13.73;3.80;;;11.40;99.90;;;;;;5025053;28;20209;-85
2023/01/06 02:08:42;;;;;;;15.03;3.90;;;11.40;99.90;;;;;;5018702;28;20223;-85
2023/01/06 02:11:10;;;;;;;14.07;4.00;;;11.40;99.90;;;;;;5018699;28;20228;-85
2023/01/06 02:13:40;;;;;;;14.40;3.60;;;11.40;99.90;;;;;;5031468;28;20288;-85
2023/01/06 02:16:19;;;;;;;12.00;3.50;;;11.40;99.90;;;;;;5031484;28;20311;-85
2023/01/06 02:18:55;;;;;;;12.63;3.70;;;11.40;99.90;;;;;;5017879;28;20235;-85
2023/01/06 02:21:41;;;;;;;17.30;4.20;;;11.40;99.90;;;;;;5015703;28;20571;-85
2023/01/06 02:24:51;;;;;;;12.13;3.67;;;11.40;99.90;;;;;;5026716;28;20220;-85
2023/01/06 02:27:41;;;;;;;13.30;3.80;;;11.40;99.90;;;;;;5028015;28;20214;-85
2023/01/06 02:30:44;;;;;;;13.23;3.63;;;11.40;99.90;;;;;;5043354;28;20197;-85
2023/01/06 02:33:21;;;;;;;15.37;4.00;;;11.40;99.90;;;;;;5007983;28;20607;-85
2023/01/06 02:36:02;;;;;;;12.33;3.40;;;11.40;99.90;;;;;;5011854;28;20218;-85
2023/01/06 02:38:46;;;;;;;13.57;3.70;;;11.40;99.90;;;;;;5024599;28;20209;-85
2023/01/06 02:41:28;;;;;;;18.10;4.53;;;11.40;99.90;;;;;;5012718;28;20216;-85
2023/01/06 02:44:01;;;;;;;15.67;3.33;;;11.40;99.90;;;;;;5013120;28;20222;-85
2023/01/06 02:46:46;;;;;;;8.93;3.17;;;11.40;99.90;;;;;;5022395;28;20217;-83
2023/01/06 02:49:25;;;;;;;8.63;3.27;;;11.40;99.90;;;;;;5044202;28;20205;-83
2023/01/06 02:51:58;;;;;;;13.87;3.90;;;11.40;99.90;;;;;;5024905;28;20233;-84
2023/01/06 02:54:36;;;;;;;15.37;4.17;;;11.40;99.90;;;;;;5024236;28;20197;-84
2023/01/06 02:57:11;;;;;;;16.10;3.83;;;11.30;99.90;;;;;;5040939;28;20654;-84
2023/01/06 02:59:43;;;;;;;17.67;5.10;;;11.40;99.90;;;;;;5028733;28;20255;-84
2023/01/06 03:02:11;;;;;;;14.87;3.93;;;11.30;99.90;;;;;;5052606;28;20244;-84
2023/01/06 03:04:44;;;;;;;14.33;3.80;;;11.30;99.90;;;;;;5028615;28;20229;-84
2023/01/06 03:07:14;;;;;;;13.77;4.17;;;11.60;99.90;;;;;;5026610;28;20744;-84
2023/01/06 03:09:41;;;;;;;11.27;3.60;;;11.30;99.90;;;;;;5026994;28;20245;-84
2023/01/06 03:12:16;;;;;;;18.87;4.57;;;11.40;99.90;;;;;;5024579;28;20228;-84
2023/01/06 03:14:46;;;;;;;13.20;3.90;;;11.30;99.90;;;;;;5021345;28;20209;-84
2023/01/06 03:17:14;;;;;;;16.13;4.50;;;11.30;99.90;;;;;;5030965;28;20221;-84
2023/01/06 03:19:43;;;;;;;14.60;4.57;;;11.30;99.90;;;;;;5029433;28;20277;-85
2023/01/06 03:22:12;;;;;;;12.40;4.03;;;11.30;99.90;;;;;;5040338;28;20410;-85
2023/01/06 03:24:43;;;;;;;14.53;4.03;;;11.30;99.90;;;;;;5036481;28;20221;-84
2023/01/06 03:27:10;;;;;;;15.07;4.30;;;11.30;99.90;;;;;;5024917;28;20214;-85
2023/01/06 03:29:38;;;;;;;15.00;4.17;;;11.30;99.90;;;;;;5036267;28;20209;-84
2023/01/06 03:32:13;;;;;;;10.77;3.37;;;11.30;99.90;;;;;;5031442;28;20240;-84
2023/01/06 03:35:01;;;;;;;19.33;3.93;;;11.30;99.90;;;;;;5048542;28;20259;-85
2023/01/06 03:37:37;;;;;;;20.53;4.07;;;11.30;99.90;;;;;;5020336;28;20201;-85
2023/01/06 03:40:12;;;;;;;17.30;4.27;;;11.30;99.90;;;;;;5033716;28;20212;-84
2023/01/06 03:45:52;;;;;;;12.03;3.57;;;11.30;99.90;;;;;;5037276;28;20213;-84
2023/01/06 03:48:34;;;;;;;14.13;3.77;;;11.30;99.90;;;;;;5028616;28;20204;-84
2023/01/06 03:51:08;;;;;;;16.63;4.03;;;11.30;99.90;;;;;;5027215;28;20247;-84
2023/01/06 03:53:41;;;;;;;11.20;3.40;;;11.30;99.90;;;;;;5032427;28;20223;-84
2023/01/06 03:56:16;;;;;;;14.23;3.83;;;11.30;99.90;;;;;;5021322;28;20210;-84
2023/01/06 03:58:46;;;;;;;16.97;3.87;;;11.30;99.90;;;;;;5026423;28;20213;-84
2023/01/06 04:01:15;;;;;;;15.57;3.90;;;11.30;99.90;;;;;;5026454;28;20618;-84
2023/01/06 04:03:45;;;;;;;13.07;3.53;;;11.30;99.90;;;;;;5026845;28;20250;-84
2023/01/06 04:06:13;;;;;;;17.33;3.80;;;11.30;99.90;;;;;;5021138;28;20295;-84
2023/01/06 04:08:40;;;;;;;12.70;3.50;;;11.30;99.90;;;;;;5019090;28;20210;-84
2023/01/06 04:11:07;;;;;;;13.77;3.93;;;11.40;99.90;;;;;;5037953;28;20312;-84
2023/01/06 04:13:34;;;;;;;13.37;3.60;;;11.40;99.90;;;;;;5049817;28;20216;-84
2023/01/06 04:16:01;;;;;;;13.13;3.27;;;11.40;99.90;;;;;;5050045;28;20188;-85
2023/01/06 04:18:28;;;;;;;12.53;3.50;;;11.40;99.90;;;;;;5065479;28;20212;-85
2023/01/06 04:20:55;;;;;;;14.73;3.93;;;11.40;99.90;;;;;;5044913;28;20250;-86
2023/01/06 04:23:31;;;;;;;15.63;3.87;;;11.40;99.90;;;;;;5049703;28;20209;-85
2023/01/06 04:26:00;;;;;;;12.03;3.13;;;11.40;99.90;;;;;;5024802;28;20201;-85
2023/01/06 04:28:33;;;;;;;15.07;3.70;;;11.50;99.90;;;;;;5043240;28;20202;-85
2023/01/06 04:31:01;;;;;;;20.77;4.93;;;11.40;99.90;;;;;;5024006;28;20209;-85
2023/01/06 04:33:29;;;;;;;17.20;4.00;;;11.40;99.90;;;;;;5017788;28;20229;-85
2023/01/06 04:36:00;;;;;;;11.97;3.27;;;11.30;99.90;;;;;;5017388;28;20217;-86
2023/01/06 04:38:29;;;;;;;12.77;3.63;;;11.40;99.90;;;;;;5016119;28;20219;-85
2023/01/06 04:40:56;;;;;;;12.70;3.67;;;11.40;99.90;;;;;;5049005;28;20208;-85
2023/01/06 04:43:23;;;;;;;14.37;4.07;;;11.40;99.90;;;;;;5028743;28;20369;-85
2023/01/06 04:45:50;;;;;;;15.67;4.23;;;11.40;99.90;;;;;;5037225;28;20225;-85
2023/01/06 04:48:17;;;;;;;14.10;3.93;;;11.50;99.90;;;;;;5025033;28;20221;-84
2023/01/06 04:50:44;;;;;;;15.20;3.70;;;11.40;99.90;;;;;;5048359;28;20197;-86
2023/01/06 04:53:12;;;;;;;14.13;4.10;;;11.40;99.90;;;;;;5023425;28;20530;-86
2023/01/06 04:55:40;;;;;;;16.60;3.97;;;11.40;99.90;;;;;;5035460;28;20223;-85
2023/01/06 04:58:07;;;;;;;15.13;3.87;;;11.40;99.90;;;;;;5026137;28;20216;-85
2023/01/06 05:00:34;;;;;;;16.53;4.10;;;11.50;99.90;;;;;;5038948;28;20217;-86
2023/01/06 05:03:01;;;;;;;14.30;3.90;;;11.40;99.90;;;;;;5018123;28;20599;-85
2023/01/06 05:05:28;;;;;;;13.17;3.57;;;11.40;99.90;;;;;;5021169;28;20224;-85
2023/01/06 05:07:55;;;;;;;11.10;3.33;;;11.40;99.90;;;;;;5047197;28;20218;-86
2023/01/06 05:10:22;;;;;;;10.73;2.97;;;11.50;99.90;;;;;;5048004;28;20205;-85
2023/01/06 05:12:50;;;;;;;11.63;3.23;;;11.40;99.90;;;;;;5039152;28;20225;-85
2023/01/06 05:15:17;;;;;;;11.00;3.33;;;11.40;99.90;;;;;;5015989;28;20239;-86
2023/01/06 05:17:44;;;;;;;14.30;3.93;;;11.40;99.90;;;;;;5021250;28;20213;-86
2023/01/06 05:20:11;;;;;;;11.97;3.37;;;11.40;99.90;;;;;;5022892;28;20206;-86
2023/01/06 05:22:38;;;;;;;12.83;3.80;;;11.40;99.90;;;;;;5032860;28;20229;-85
2023/01/06 05:25:06;;;;;;;14.60;3.97;;;11.40;99.90;;;;;;5037434;28;20224;-86
2023/01/06 05:27:33;;;;;;;10.53;3.33;;;11.40;99.90;;;;;;5025492;28;20208;-86
2023/01/06 05:30:01;;;;;;;13.03;3.47;;;11.40;99.90;;;;;;5037312;28;20654;-86
2023/01/06 05:32:28;;;;;;;12.53;3.50;;;11.50;99.90;;;;;;5037894;28;20698;-86
2023/01/06 05:34:55;;;;;;;11.40;3.33;;;11.40;99.90;;;;;;5032590;28;20216;-86
2023/01/06 05:37:22;;;;;;;10.83;3.30;;;11.40;99.90;;;;;;5023549;28;20284;-86
2023/01/06 05:39:49;;;;;;;11.07;2.80;;;11.40;99.90;;;;;;5031897;28;20213;-85
2023/01/06 05:42:17;;;;;;;10.63;3.33;;;11.50;99.90;;;;;;5043486;28;20715;-84
2023/01/06 05:44:44;;;;;;;15.33;3.97;;;11.40;99.90;;;;;;5023395;28;20245;-84
2023/01/06 05:47:13;;;;;;;13.40;3.87;;;11.30;99.90;;;;;;5045766;28;20209;-84
2023/01/06 05:49:39;;;;;;;11.80;3.40;;;11.50;99.90;;;;;;5039834;28;20237;-83
2023/01/06 05:52:09;;;;;;;14.37;3.30;;;11.50;99.90;;;;;;5023353;28;20285;-85
2023/01/06 05:54:36;;;;;;;12.23;3.47;;;11.50;99.90;;;;;;5042587;28;20221;-85
2023/01/06 05:57:03;;;;;;;15.67;4.17;;;11.50;99.90;;;;;;5026161;28;20216;-84
2023/01/06 05:59:30;;;;;;;11.60;3.53;;;11.50;99.90;;;;;;5053784;28;20230;-85
2023/01/06 06:01:57;;;;;;;13.90;3.43;;;11.50;99.90;;;;;;5053864;28;20230;-86
2023/01/06 06:04:25;;;;;;;12.13;3.67;;;11.50;99.90;;;;;;5019362;28;20252;-85
2023/01/06 06:06:52;;;;;;;11.57;3.63;;;11.70;99.90;;;;;;5025916;28;20221;-87
2023/01/06 06:09:19;;;;;;;12.53;3.43;;;11.50;99.90;;;;;;5021938;28;20238;-86
2023/01/06 06:11:46;;;;;;;10.57;3.33;;;11.50;99.90;;;;;;5045616;28;20251;-86
2023/01/06 06:14:13;;;;;;;14.33;3.60;;;11.40;99.90;;;;;;5026255;28;20224;-86
2023/01/06 06:16:40;;;;;;;10.80;3.00;;;11.40;99.90;;;;;;5043982;28;20235;-86
2023/01/06 06:19:06;;;;;;;13.30;3.87;;;11.40;99.90;;;;;;5024585;28;20216;-86
2023/01/06 06:21:35;;;;;;;10.90;3.33;;;11.40;99.90;;;;;;5030509;28;21007;-84
2023/01/06 06:24:02;;;;;;;11.17;3.60;;;11.40;99.90;;;;;;5023560;28;20211;-85
2023/01/06 06:26:29;;;;;;;13.03;3.87;;;11.40;99.90;;;;;;5020581;28;20229;-84
2023/01/06 06:28:56;;;;;;;12.73;3.40;;;11.40;99.90;;;;;;5031052;28;20591;-84
2023/01/06 06:31:25;;;;;;;13.23;3.33;;;11.40;99.90;;;;;;5035952;28;20202;-83
2023/01/06 06:33:53;;;;;;;11.63;3.37;;;11.30;99.90;;;;;;5044533;28;20206;-83
2023/01/06 06:36:20;;;;;;;14.27;3.80;;;11.40;99.90;;;;;;5019052;28;20587;-82
2023/01/06 06:38:50;;;;;;;12.57;3.77;;;11.30;99.90;;;;;;5044181;28;20674;-85
2023/01/06 06:41:18;;;;;;;16.30;4.63;;;11.40;99.90;;;;;;5037738;28;20202;-85
2023/01/06 06:43:45;;;;;;;12.70;3.70;;;11.30;99.90;;;;;;5040521;28;20279;-85
2023/01/06 06:46:13;;;;;;;14.43;3.70;;;11.30;99.90;;;;;;5018754;28;20233;-84
2023/01/06 06:48:40;;;;;;;14.70;3.77;;;11.30;99.90;;;;;;5043029;28;20748;-84
2023/01/06 06:51:08;;;;;;;12.47;3.43;;;11.30;99.90;;;;;;5051938;28;20544;-84
2023/01/06 06:53:37;;;;;;;11.97;3.30;;;11.30;99.90;;;;;;5027192;28;20287;-84
2023/01/06 06:56:08;;;;;;;12.00;3.43;;;11.30;99.90;;;;;;5042875;28;20201;-84
2023/01/06 06:58:37;;;;;;;13.30;3.70;;;11.30;99.90;;;;;;5031705;28;20607;-84
2023/01/06 07:01:04;;;;;;;13.37;3.47;;;11.30;99.90;;;;;;5028705;28;20208;-84
2023/01/06 07:03:31;;;;;;;11.30;3.20;;;11.30;99.90;;;;;;5048555;28;20287;-83
2023/01/06 07:05:59;;;;;;;14.67;3.77;;;11.40;99.90;;;;;;5030878;28;20275;-83
2023/01/06 07:08:26;;;;;;;13.63;3.90;;;11.20;99.90;;;;;;5055824;28;20251;-84
2023/01/06 07:10:53;;;;;;;10.87;3.60;;;11.30;99.90;;;;;;5051716;28;20197;-86
2023/01/06 07:23:24;;;;;;;9.50;2.30;;;11.30;99.90;;;;;;5022262;28;20316;-87
2023/01/06 07:26:56;;;;;;;9.93;2.70;;;11.20;99.90;;;;;;5041117;28;20220;-87
2023/01/06 07:29:25;;;;;;;6.80;2.33;;;11.30;99.90;;;;;;5042066;28;20210;-88
2023/01/06 07:31:52;;;;;;;7.90;2.47;;;11.30;99.90;;;;;;5034880;28;20307;-88
2023/01/06 07:34:19;;;;;;;10.47;3.40;;;11.30;99.90;;;;;;5034773;28;20215;-87
2023/01/06 07:36:46;;;;;;;9.10;2.87;;;11.40;99.90;;;;;;5027631;28;20641;-85
2023/01/06 07:39:13;;;;;;;10.93;3.17;;;11.40;99.90;;;;;;5024302;28;20297;-83
2023/01/06 07:41:40;;;;;;;12.03;3.23;;;11.40;99.90;;;;;;5052319;28;20221;-84
2023/01/06 07:44:12;;;;;;;9.30;2.73;;;11.40;99.90;;;;;;5045782;28;20210;-84
2023/01/06 07:46:41;;;;;;;8.50;2.77;;;11.30;99.90;;;;;;5046860;28;20312;-83
2023/01/06 07:49:08;;;;;;;10.27;2.80;;;11.40;99.90;;;;;;5026262;28;20229;-83
2023/01/06 07:51:35;;;;;;;11.50;3.17;;;11.40;99.90;;;;;;5026453;28;20256;-84
2023/01/06 07:54:03;;;;;;;8.50;2.57;;;11.40;99.90;;;;;;5047561;28;20261;-84
2023/01/06 07:56:30;;;;;;;9.87;3.17;;;11.40;99.90;;;;;;5027922;28;20213;-84
2023/01/06 07:59:00;;;;;;;11.20;3.53;;;11.40;99.90;;;;;;5047026;28;20220;-84
2023/01/06 08:01:27;;;;;;;23.30;4.20;;;11.40;99.90;;;;;;5022260;28;20271;-84
2023/01/06 08:03:55;;;;;;;11.60;3.87;;;11.50;99.90;;;;;;5048976;28;20375;-84
2023/01/06 08:06:22;;;;;;;12.60;3.90;;;11.50;99.90;;;;;;5042678;28;20235;-83
2023/01/06 08:08:50;;;;;;;11.73;3.70;;;11.40;99.90;;;;;;5037780;28;20218;-84
2023/01/06 08:11:17;;;;;;;13.30;4.07;;;11.50;99.90;;;;;;5044534;28;20220;-84
2023/01/06 08:13:44;;;;;;;14.27;4.27;;;11.50;99.90;;;;;;5022020;28;20221;-84
2023/01/06 08:16:12;;;;;;;12.50;3.87;;;11.40;99.90;;;;;;5046379;28;20216;-85
2023/01/06 08:18:39;;;;;;;9.70;3.13;;;11.40;99.90;;;;;;5033940;28;20278;-85
2023/01/06 08:21:09;;;;;;;11.03;3.50;;;11.50;99.90;;;;;;5043923;28;20231;-86
2023/01/06 08:23:37;;;;;;;12.80;3.43;;;11.50;99.90;;;;;;5037474;28;20308;-85
2023/01/06 08:26:06;;;;;;;14.60;4.17;;;11.50;99.90;;;;;;5030248;28;20221;-85
2023/01/06 08:28:33;;;;;;;11.37;3.60;;;11.50;99.90;;;;;;5034167;28;20342;-84
2023/01/06 08:31:01;;;;;;;17.10;4.97;;;11.50;99.90;;;;;;5025986;28;20447;-86
2023/01/06 08:33:29;;;;;;;12.53;3.50;;;11.50;99.90;;;;;;5042188;28;20308;-85
2023/01/06 08:35:59;;;;;;;12.37;3.27;;;11.60;99.90;;;;;;5029119;28;20215;-85
2023/01/06 08:38:30;;;;;;;13.77;3.27;;;11.60;99.90;;;;;;5039146;28;20231;-84
2023/01/06 08:40:58;;;;;;;9.07;3.13;;;11.60;99.90;;;;;;5019127;28;20210;-85
2023/01/06 08:43:26;;;;;;;13.90;4.00;;;11.60;99.90;;;;;;5036526;28;20229;-84
2023/01/06 08:45:53;;;;;;;12.30;3.50;;;11.60;99.90;;;;;;5042064;28;20229;-84
2023/01/06 08:48:20;;;;;;;12.60;3.83;;;11.60;99.90;;;;;;5026463;28;20216;-85
2023/01/06 08:50:48;;;;;;;11.07;3.60;;;11.70;99.90;;;;;;5049350;28;20210;-85
2023/01/06 08:53:15;;;;;;;10.67;3.43;;;11.70;99.90;;;;;;5013872;28;20718;-86
2023/01/06 08:55:43;;;;;;;14.03;3.53;;;11.80;99.90;;;;;;5035783;28;20208;-85
2023/01/06 08:58:11;;;;;;;10.70;3.20;;;11.80;99.90;;;;;;5033062;28;20286;-85
2023/01/06 09:00:40;;;;;;;8.63;2.80;;;11.80;99.90;;;;;;5031027;28;20653;-84
2023/01/06 09:03:08;;;;;;;12.17;3.33;;;11.90;99.90;;;;;;5048461;28;20231;-84
2023/01/06 09:05:37;;;;;;;9.50;2.90;;;11.80;99.90;;;;;;5040010;28;20233;-84
2023/01/06 09:08:04;;;;;;;11.67;3.33;;;11.70;99.90;;;;;;5047457;28;20216;-84
2023/01/06 09:10:31;;;;;;;9.80;3.20;;;11.70;99.90;;;;;;5050228;28;20327;-84
2023/01/06 09:13:01;;;;;;;11.40;2.90;;;11.70;99.90;;;;;;5051359;28;20312;-84
2023/01/06 09:15:28;;;;;;;11.07;3.40;;;11.70;99.90;;;;;;5021926;28;20296;-84
2023/01/06 09:17:55;;;;;;;9.93;3.10;;;11.70;99.90;;;;;;5020972;28;20209;-84
2023/01/06 09:20:22;;;;;;;10.60;3.43;;;11.60;99.90;;;;;;5026624;28;20288;-84
2023/01/06 09:22:49;;;;;;;9.03;3.17;;;11.60;99.90;;;;;;5029930;28;20251;-84
2023/01/06 09:25:17;;;;;;;14.30;3.60;;;11.50;99.90;;;;;;5028394;28;20218;-83
2023/01/06 09:27:44;;;;;;;11.20;3.07;;;11.50;99.90;;;;;;5027889;28;20320;-84
2023/01/06 09:30:13;;;;;;;9.33;2.90;;;11.50;99.90;;;;;;5020175;28;20210;-84
2023/01/06 09:32:40;;;;;;;9.97;3.03;;;11.50;99.90;;;;;;5026428;28;20222;-85
2023/01/06 09:35:09;;;;;;;15.03;4.07;;;11.40;99.90;;;;;;5039795;28;20278;-84
2023/01/06 09:37:36;;;;;;;11.53;3.23;;;11.40;99.90;;;;;;5048712;28;20905;-83
2023/01/06 09:40:05;;;;;;;11.57;3.50;;;11.40;99.90;;;;;;5030661;28;20213;-83
2023/01/06 09:42:43;;;;;;;10.93;3.30;;;11.40;99.90;;;;;;5030082;28;20232;-84
2023/01/06 09:45:18;;;;;;;7.67;2.90;;;11.40;99.90;;;;;;5030752;28;20304;-84
2023/01/06 09:47:48;;;;;;;9.90;2.87;;;11.00;99.90;;;;;;5050162;28;20216;-84
2023/01/06 09:50:31;;;;;;;7.40;2.70;;;11.30;99.90;;;;;;5036031;28;20205;-84
2023/01/06 09:53:01;;;;;;;8.70;3.23;;;11.30;99.90;;;;;;5044081;28;20228;-84
2023/01/06 09:55:35;;;;;;;10.63;3.33;;;11.30;99.90;;;;;;5017439;28;20208;-84
2023/01/06 09:58:06;;;;;;;9.13;3.10;;;11.40;99.90;;;;;;5025429;28;20209;-84
2023/01/06 10:00:38;;;;;;;12.37;3.80;;;11.40;99.90;;;;;;5015320;28;20220;-84
2023/01/06 10:03:08;;;;;;;12.60;3.37;;;11.50;99.90;;;;;;5034035;28;20711;-83
2023/01/06 10:05:42;;;;;;;12.90;3.70;;;11.40;99.90;;;;;;5047307;28;20221;-84
2023/01/06 10:08:17;;;;;;;14.67;3.77;;;11.40;99.90;;;;;;5048876;28;20217;-84
2023/01/06 10:10:55;;;;;;;9.60;3.40;;;11.40;99.90;;;;;;5018795;28;20299;-84
2023/01/06 10:13:39;;;;;;;19.87;5.80;;;11.50;99.90;;;;;;5017220;28;20425;-84
2023/01/06 10:16:16;;;;;;;12.53;3.73;;;11.50;99.90;;;;;;5019283;28;20677;-83
2023/01/06 10:18:52;;;;;;;16.93;4.63;;;11.60;99.90;;;;;;5023653;28;20577;-83
2023/01/06 10:21:29;;;;;;;15.57;4.60;;;11.60;99.90;;;;;;5049177;28;20666;-83
2023/01/06 10:24:21;;;;;;;12.03;3.63;;;11.70;99.90;;;;;;5037770;28;20224;-83
2023/01/06 10:26:52;;;;;;;14.87;3.83;;;11.80;99.90;;;;;;5041163;28;20224;-84
2023/01/06 10:29:25;;;;;;;13.20;4.20;;;11.70;99.90;;;;;;5014621;28;20824;-83
2023/01/06 10:31:56;;;;;;;13.07;4.00;;;11.80;99.90;;;;;;5017305;28;20220;-83
2023/01/06 10:34:26;;;;;;;15.83;4.37;;;11.90;99.90;;;;;;5043422;28;20307;-85
2023/01/06 10:36:56;;;;;;;13.33;3.90;;;12.00;99.90;;;;;;5024070;28;20208;-83
2023/01/06 10:39:27;;;;;;;11.93;3.77;;;12.00;99.90;;;;;;5020652;28;20629;-83
2023/01/06 10:44:48;;;;;;;13.53;4.40;;;12.20;99.90;;;;;;5035962;28;20198;-83
2023/01/06 10:47:23;;;;;;;12.90;4.33;;;12.20;99.90;;;;;;5042528;28;20220;-83
2023/01/06 10:49:50;;;;;;;10.80;3.47;;;12.30;99.90;;;;;;5039053;28;20205;-83
2023/01/06 10:52:17;;;;;;;14.57;4.80;;;12.30;99.90;;;;;;5020181;28;20233;-83
2023/01/06 10:54:45;;;;;;;11.83;3.83;;;12.50;99.90;;;;;;5039004;28;20271;-83
2023/01/06 10:57:23;;;;;;;10.83;3.73;;;12.40;99.90;;;;;;5034382;28;20706;-83
2023/01/06 11:00:16;;;;;;;11.63;3.87;;;12.50;99.90;;;;;;5033949;28;20598;-84
2023/01/06 11:02:49;;;;;;;11.63;3.80;;;12.50;99.90;;;;;;5046235;28;20693;-84
2023/01/06 11:05:18;;;;;;;11.03;3.57;;;12.50;99.90;;;;;;5047302;28;20270;-83
2023/01/06 11:07:54;;;;;;;7.63;3.10;;;12.60;99.90;;;;;;5026890;28;20349;-85
2023/01/06 11:10:28;;;;;;;9.27;2.83;;;12.80;99.90;;;;;;5043334;28;20294;-84
2023/01/06 11:12:56;;;;;;;11.93;3.90;;;12.80;99.90;;;;;;5039141;28;20315;-83
2023/01/06 11:15:29;;;;;;;11.57;3.40;;;12.90;99.90;;;;;;5019158;28;20213;-83
2023/01/06 11:17:57;;;;;;;11.53;4.03;;;13.00;99.90;;;;;;5043877;28;20202;-84
2023/01/06 11:20:31;;;;;;;14.37;3.80;;;14.20;99.90;;;;;;5056092;28;20252;-83
2023/01/06 11:23:14;;;;;;;8.77;3.33;;;13.30;99.90;;;;;;5043767;28;20251;-84
2023/01/06 11:25:41;;;;;;;10.70;3.87;;;13.40;99.90;;;;;;5045607;28;20224;-83
2023/01/06 11:28:19;;;;;;;12.23;4.53;;;13.40;99.90;;;;;;5048974;28;20265;-82
2023/01/06 11:30:51;;;;;;;12.00;4.17;;;13.30;99.90;;;;;;5043094;28;20295;-82
2023/01/06 11:33:22;;;;;;;13.87;4.23;;;13.30;99.90;;;;;;5054277;28;20834;-84
2023/01/06 11:35:49;;;;;;;10.43;3.73;;;13.40;99.90;;;;;;5050270;28;20208;-84
2023/01/06 11:38:19;;;;;;;11.57;3.70;;;13.40;99.90;;;;;;5053091;28;20199;-83
2023/01/06 11:40:48;;;;;;;11.80;4.43;;;13.60;99.90;;;;;;5044539;28;20297;-83
2023/01/06 11:43:20;;;;;;;15.27;4.43;;;13.80;99.90;;;;;;5040831;28;20332;-84
2023/01/06 11:45:53;;;;;;;13.97;4.23;;;14.10;99.90;;;;;;5051728;28;20635;-84
2023/01/06 11:48:27;;;;;;;10.57;3.67;;;14.10;99.90;;;;;;5049097;28;20260;-84
2023/01/06 11:50:56;;;;;;;13.27;4.23;;;14.20;99.90;;;;;;5044033;28;20209;-84
2023/01/06 11:53:24;;;;;;;13.63;3.97;;;14.20;99.90;;;;;;5051421;28;20304;-84
2023/01/06 11:56:01;;;;;;;10.63;3.90;;;14.10;99.90;;;;;;5027363;28;20215;-84
2023/01/06 11:58:53;;;;;;;12.23;4.53;;;14.20;99.90;;;;;;5056829;28;20265;-84
2023/01/06 12:01:34;;;;;;;15.17;4.40;;;14.70;99.90;;;;;;5030109;28;20279;-84
2023/01/06 12:04:12;;;;;;;14.53;5.27;;;14.60;99.90;;;;;;5013044;28;20217;-84
2023/01/06 12:06:42;;;;;;;16.07;5.83;;;14.90;99.90;;;;;;5054561;28;20223;-84
2023/01/06 12:09:16;;;;;;;13.83;5.73;;;14.90;99.90;;;;;;5029507;28;20262;-84
2023/01/06 12:11:47;;;;;;;11.57;4.20;;;14.90;99.90;;;;;;5026776;28;20230;-85
2023/01/06 12:14:17;;;;;;;10.10;3.33;;;14.80;99.90;;;;;;5040142;28;20568;-84
2023/01/06 12:16:55;;;;;;;11.07;3.97;;;14.70;99.90;;;;;;5052507;28;20317;-84
2023/01/06 12:19:31;;;;;;;12.57;4.57;;;14.60;99.90;;;;;;5045971;28;20211;-84
2023/01/06 12:21:59;;;;;;;13.53;4.27;;;14.60;99.90;;;;;;5053250;28;20236;-86
2023/01/06 12:24:27;;;;;;;11.77;4.23;;;14.60;99.90;;;;;;5050134;28;20282;-84
2023/01/06 12:27:03;;;;;;;14.10;5.50;;;14.70;99.90;;;;;;5035219;28;20300;-83
2023/01/06 12:29:36;;;;;;;13.43;4.63;;;14.70;99.90;;;;;;5041329;28;20378;-84
2023/01/06 12:32:14;;;;;;;18.10;4.57;;;15.40;99.90;;;;;;5032283;28;20232;-84
2023/01/06 12:34:51;;;;;;;12.63;3.73;;;14.50;99.90;;;;;;5046220;28;20722;-83
2023/01/06 12:37:26;;;;;;;12.90;4.43;;;14.70;99.90;;;;;;5031297;28;20202;-83
2023/01/06 12:40:03;;;;;;;18.23;4.77;;;14.60;99.90;;;;;;5022933;28;20747;-84
2023/01/06 12:42:37;;;;;;;14.50;4.40;;;15.00;99.90;;;;;;5041764;28;20244;-83
2023/01/06 12:45:17;;;;;;;12.47;4.23;;;13.40;99.90;;;;;;5021151;28;20207;-84
2023/01/06 12:47:54;;;;;;;14.40;4.37;;;14.20;99.90;;;;;;5036128;28;20217;-84
2023/01/06 12:50:45;;;;;;;14.87;4.00;;;16.50;99.90;;;;;;5042186;28;20205;-85
2023/01/06 12:53:22;;;;;;;13.40;4.77;;;15.40;99.90;;;;;;5029309;28;20600;-84
2023/01/06 12:56:01;;;;;;;12.93;3.67;;;15.80;99.90;;;;;;5055435;28;20298;-85
2023/01/06 12:58:37;;;;;;;13.23;3.60;;;16.00;99.90;;;;;;5040195;28;20209;-85
2023/01/06 13:01:09;;;;;;;14.87;3.47;;;16.00;99.90;;;;;;5043344;28;20223;-85
2023/01/06 13:04:17;;;;;;;12.77;3.50;;;16.10;99.90;;;;;;5063030;28;20241;-85
2023/01/06 13:07:02;;;;;;;12.37;3.57;;;16.20;99.90;;;;;;5046105;28;20232;-86
2023/01/06 13:09:46;;;;;;;12.83;3.70;;;16.10;99.90;;;;;;5033950;28;20221;-86
2023/01/06 13:12:47;;;;;;;14.60;3.57;;;16.10;99.90;;;;;;5027899;28;20232;-85
2023/01/06 13:15:20;;;;;;;12.73;3.87;;;16.10;99.90;;;;;;5034686;28;20227;-85
2023/01/06 13:17:56;;;;;;;15.40;4.37;;;15.50;99.90;;;;;;5029277;28;20210;-85